< < Back
Terminal Aerodrome Forecast


Current Version              Previous Versions:   1  2  3  4  5  6  7  8  9  

Terminal Aerodrome Forecast

819
FTUS42 KGSP 270855 AAC
TAFCLT
TAF AMD
KCLT 270855Z 2709/2806 18003KT P6SM OVC003
      TEMPO 2709/2711 SCT003 BKN045
     FM271200 20004KT P6SM OVC008
     FM271400 20005KT P6SM OVC015
     FM271600 20006KT P6SM BKN040
     FM271800 18007KT P6SM BKN050 PROB30 2718/2724 4SM TSRA OVC040CB
     FM280000 17005KT P6SM BKN060=

Latest METAR

996
SAUS70 KWBC 271000 RRB
MTRCLT
METAR KCLT 270952Z 22003KT 10SM SCT039 BKN170 19/17 A3022 RMK AO2 SLP224
T01890172 $


USA.gov is the U.S. government's official web portal to all federal, state and local government web resources and services.